This is the latest recevied weather packets stored in our database for station/object SQ9MHX-13. If no packets are shown the sender has not sent any weather packets the latest 10 day(s).
| Time | Temp. | Humidity | Pressure | Rain* | Wind** | Luminosity | Snow |
|---|---|---|---|---|---|---|---|
| 1777448042 | 6.11° C | 49% | 985.4 hPa | - | 0 m/s | - | - |
| 1777447743 | 7.22° C | 46% | 984.9 hPa | - | 0 m/s | - | - |
| 1777447445 | 7.22° C | 48% | 985 hPa | - | 0 m/s | - | - |
| 1777447147 | 7.22° C | 48% | 985.2 hPa | - | 0 m/s | - | - |
| 1777446550 | 6.11° C | 50% | 985.1 hPa | - | 0 m/s | - | - |
| 1777446252 | 7.22° C | 49% | 985.9 hPa | - | 0 m/s | - | - |
| 1777445954 | 5° C | 53% | 986.7 hPa | - | 0 m/s | - | - |
| 1777445656 | 6.11° C | 54% | 987.6 hPa | - | 0 m/s | - | - |
| 1777445059 | 5° C | 54% | 987.5 hPa | - | 0 m/s | - | - |
| 1777444761 | 5° C | 54% | 987.4 hPa | - | 0 m/s | - | - |
| 1777444463 | 5° C | 54% | 987 hPa | - | 0 m/s | - | - |
| 1777444165 | 6.11° C | 52% | 985.4 hPa | - | 0 m/s | - | - |
| 1777443866 | 6.11° C | 52% | 986 hPa | - | 0 m/s | - | - |
| 1777443568 | 5° C | 55% | 988 hPa | - | 0 m/s | - | - |
| 1777442972 | 3.89° C | 56% | 987.9 hPa | - | 0 m/s | - | - |
| 1777442674 | 6.11° C | 56% | 987.7 hPa | - | 0 m/s | - | - |
| 1777442375 | 5° C | 59% | 988.6 hPa | - | 0 m/s | - | - |
| 1777442086 | 5° C | 59% | 989 hPa | - | 0 m/s | - | - |
| 1777441481 | 5° C | 57% | 988.4 hPa | - | 0 m/s | - | - |
| 1777441183 | 3.89° C | 60% | 988.4 hPa | - | 0 m/s | - | - |
| 1777440885 | 5° C | 57% | 986.7 hPa | - | 0 m/s | - | - |
| 1777440586 | 7.22° C | 53% | 986.5 hPa | - | 0 m/s | - | - |
| 1777440288 | 6.11° C | 56% | 988.5 hPa | - | 0 m/s | - | - |
| 1777439990 | 5° C | 59% | 988.6 hPa | - | 0 m/s | - | - |
| 1777439692 | 3.89° C | 62% | 988.6 hPa | - | 0 m/s | - | - |
* Rain since midnight (hover to see other rain measurements)
** Current wind speed in m/s (hover to see current wind gust speed)